createdAt,value
2022-08-25T00:02:08.963Z,18.48
2022-08-25T00:04:37.191Z,18.49
2022-08-25T00:07:06.062Z,18.45
2022-08-25T00:09:34.340Z,18.42
2022-08-25T00:12:02.345Z,18.44
2022-08-25T00:14:33.843Z,18.44
2022-08-25T00:17:01.389Z,18.40
2022-08-25T00:19:32.637Z,18.34
2022-08-25T00:22:01.017Z,18.21
2022-08-25T00:24:28.237Z,18.18
2022-08-25T00:26:58.412Z,18.15
2022-08-25T00:29:29.604Z,18.11
2022-08-25T00:31:58.301Z,18.10
2022-08-25T00:34:30.444Z,18.07
2022-08-25T00:36:57.595Z,18.04
2022-08-25T00:39:24.995Z,17.95
2022-08-25T00:41:54.381Z,17.98
2022-08-25T00:44:21.233Z,17.94
2022-08-25T00:46:53.988Z,17.98
2022-08-25T00:49:38.764Z,18.04
2022-08-25T00:52:22.469Z,18.06
2022-08-25T00:55:01.902Z,18.09
2022-08-25T00:57:36.446Z,18.09
2022-08-25T01:00:13.256Z,18.06
2022-08-25T01:02:40.311Z,18.05
2022-08-25T01:05:08.914Z,18.06
2022-08-25T01:07:36.932Z,18.12
2022-08-25T01:10:07.696Z,18.20
2022-08-25T01:12:36.493Z,18.21
2022-08-25T01:15:06.285Z,18.18
2022-08-25T01:17:54.503Z,18.23
2022-08-25T01:20:23.794Z,18.25
2022-08-25T01:22:57.446Z,18.13
2022-08-25T01:26:01.936Z,18.24
2022-08-25T01:28:28.755Z,18.23
2022-08-25T01:30:56.018Z,18.26
2022-08-25T01:33:23.396Z,18.25
2022-08-25T01:35:50.245Z,18.21
2022-08-25T01:38:17.340Z,18.18
2022-08-25T01:40:44.370Z,18.27
2022-08-25T01:43:11.732Z,18.34
2022-08-25T01:45:41.845Z,18.42
2022-08-25T01:48:09.741Z,18.43
2022-08-25T01:50:37.146Z,18.46
2022-08-25T01:53:03.921Z,18.46
2022-08-25T01:55:51.380Z,18.48
2022-08-25T01:58:20.282Z,18.32
2022-08-25T02:00:49.090Z,18.50
2022-08-25T02:03:20.883Z,18.42
2022-08-25T02:05:49.185Z,18.41
2022-08-25T02:08:16.077Z,18.34
2022-08-25T02:10:42.919Z,18.26
2022-08-25T02:13:10.177Z,18.28
2022-08-25T02:15:46.470Z,18.30
2022-08-25T02:18:14.245Z,18.31
2022-08-25T02:20:41.700Z,18.26
2022-08-25T02:23:08.557Z,18.31
2022-08-25T02:25:36.890Z,18.35
2022-08-25T02:28:04.265Z,18.34
2022-08-25T02:30:31.392Z,18.36
2022-08-25T02:32:59.657Z,18.30
2022-08-25T02:35:26.757Z,18.34
2022-08-25T02:37:54.544Z,18.38
2022-08-25T02:40:21.903Z,18.34
2022-08-25T02:42:49.908Z,18.33
2022-08-25T02:45:17.169Z,18.25
2022-08-25T02:47:44.598Z,17.97
2022-08-25T02:50:11.878Z,17.84
2022-08-25T02:52:40.155Z,17.75
2022-08-25T02:55:11.409Z,17.51
2022-08-25T02:57:38.183Z,17.45
2022-08-25T03:00:06.398Z,17.42
2022-08-25T03:02:33.775Z,17.39
2022-08-25T03:05:00.872Z,17.26
2022-08-25T03:07:27.810Z,17.22
2022-08-25T03:09:56.828Z,17.12
2022-08-25T03:12:23.693Z,17.14
2022-08-25T03:14:50.469Z,17.11
2022-08-25T03:17:17.733Z,17.11
2022-08-25T03:19:44.567Z,17.16
2022-08-25T03:22:11.330Z,17.17
2022-08-25T03:24:38.120Z,17.00
2022-08-25T03:27:05.439Z,17.27
2022-08-25T03:29:33.361Z,17.25
2022-08-25T03:32:01.231Z,17.28
2022-08-25T03:34:30.201Z,17.21
2022-08-25T03:36:58.306Z,17.32
2022-08-25T03:39:26.568Z,17.29
2022-08-25T03:41:53.936Z,17.29
2022-08-25T03:44:21.709Z,17.28
2022-08-25T03:46:52.054Z,17.28
2022-08-25T03:49:23.717Z,17.26
2022-08-25T03:51:52.756Z,17.30
2022-08-25T03:54:23.856Z,17.28
2022-08-25T03:56:50.669Z,17.25
2022-08-25T03:59:18.946Z,17.28
2022-08-25T04:01:51.360Z,17.28
2022-08-25T04:04:20.950Z,17.28
2022-08-25T04:06:47.757Z,17.24
2022-08-25T04:09:14.633Z,17.21
2022-08-25T04:11:42.588Z,17.20
2022-08-25T04:14:09.855Z,17.25
2022-08-25T04:16:43.269Z,17.20
2022-08-25T04:19:10.363Z,17.15
2022-08-25T04:21:39.006Z,17.19
2022-08-25T04:24:08.027Z,17.16
2022-08-25T04:26:44.734Z,17.24
2022-08-25T04:29:13.639Z,17.22
2022-08-25T04:31:43.001Z,17.21
2022-08-25T04:34:17.687Z,17.29
2022-08-25T04:37:03.706Z,17.37
2022-08-25T04:39:31.135Z,17.42
2022-08-25T04:41:58.706Z,17.42
2022-08-25T04:44:25.567Z,17.44
2022-08-25T04:46:52.353Z,17.51
2022-08-25T04:49:19.496Z,17.67
2022-08-25T04:51:46.529Z,17.76
2022-08-25T04:54:17.078Z,17.86
2022-08-25T04:56:45.297Z,17.98
2022-08-25T04:59:13.884Z,18.00
2022-08-25T05:01:42.765Z,18.08
2022-08-25T05:04:14.634Z,18.18
2022-08-25T05:06:55.001Z,18.23
2022-08-25T05:09:21.873Z,18.31
2022-08-25T05:11:50.109Z,18.38
2022-08-25T05:14:21.590Z,18.41
2022-08-25T05:16:52.442Z,18.45
2022-08-25T05:19:19.521Z,18.44
2022-08-25T05:21:46.354Z,18.40
2022-08-25T05:24:13.120Z,18.45
2022-08-25T05:26:39.960Z,18.51
2022-08-25T05:29:06.966Z,18.50
2022-08-25T05:31:36.432Z,18.54
2022-08-25T05:34:10.366Z,18.70
2022-08-25T05:36:38.485Z,18.80
2022-08-25T05:39:05.518Z,18.93
2022-08-25T05:41:33.503Z,19.08
2022-08-25T05:44:00.389Z,19.17
2022-08-25T05:46:27.295Z,19.25
2022-08-25T05:48:58.920Z,19.37
2022-08-25T05:51:26.871Z,19.46
2022-08-25T05:53:54.145Z,19.46
2022-08-25T05:56:21.495Z,19.59
2022-08-25T05:58:48.840Z,19.49
2022-08-25T06:01:48.195Z,19.49
2022-08-25T06:04:18.280Z,19.62
2022-08-25T06:06:45.141Z,19.75
2022-08-25T06:09:12.304Z,19.81
2022-08-25T06:11:40.388Z,19.70
2022-08-25T06:14:09.769Z,19.82
2022-08-25T06:16:37.501Z,19.91
2022-08-25T06:19:04.825Z,19.99
2022-08-25T06:21:31.660Z,20.03
2022-08-25T06:23:58.522Z,20.03
2022-08-25T06:26:25.685Z,20.11
2022-08-25T06:28:53.290Z,20.16
2022-08-25T06:31:22.425Z,20.26
2022-08-25T06:33:50.344Z,20.34
2022-08-25T06:36:17.263Z,20.33
2022-08-25T06:38:44.073Z,20.11
2022-08-25T06:41:10.953Z,20.11
2022-08-25T06:43:38.150Z,20.32
2022-08-25T06:46:09.266Z,20.30
2022-08-25T06:48:36.120Z,20.41
2022-08-25T06:51:10.647Z,20.49
2022-08-25T06:53:41.727Z,20.64
2022-08-25T06:56:09.740Z,20.59
2022-08-25T06:58:36.879Z,20.67
2022-08-25T07:01:15.707Z,20.56
2022-08-25T07:03:46.639Z,20.62
2022-08-25T07:06:14.932Z,20.79
2022-08-25T07:08:46.670Z,21.09
2022-08-25T07:11:18.270Z,21.42
2022-08-25T07:13:45.984Z,21.72
2022-08-25T07:16:15.526Z,21.98
2022-08-25T07:18:44.202Z,22.00
2022-08-25T07:21:12.786Z,22.22
2022-08-25T07:23:43.402Z,22.33
2022-08-25T07:26:27.133Z,22.47
2022-08-25T07:28:59.809Z,22.58
2022-08-25T07:31:29.716Z,22.68
2022-08-25T07:34:16.283Z,22.76
2022-08-25T07:36:44.150Z,22.87
2022-08-25T07:39:11.557Z,23.02
2022-08-25T07:41:41.228Z,23.22
2022-08-25T07:44:10.970Z,23.36
2022-08-25T07:46:38.314Z,23.46
2022-08-25T07:49:16.471Z,23.67
2022-08-25T07:52:04.322Z,23.74
2022-08-25T07:54:33.920Z,23.61
2022-08-25T07:57:03.678Z,23.74
2022-08-25T07:59:31.175Z,23.80
2022-08-25T08:02:17.836Z,23.76
2022-08-25T08:04:50.536Z,23.81
2022-08-25T08:07:23.144Z,23.90
2022-08-25T08:10:05.299Z,24.21
2022-08-25T08:12:38.197Z,24.41
2022-08-25T08:15:10.087Z,24.65
2022-08-25T08:17:38.951Z,24.89
2022-08-25T08:20:09.020Z,25.23
2022-08-25T08:22:37.196Z,25.60
2022-08-25T08:25:04.775Z,25.61
2022-08-25T08:27:37.390Z,25.87
2022-08-25T08:30:06.342Z,26.05
2022-08-25T08:32:53.291Z,25.99
2022-08-25T08:35:19.998Z,25.98
2022-08-25T08:37:46.934Z,25.75
2022-08-25T08:40:20.997Z,25.82
2022-08-25T08:43:18.557Z,25.58
2022-08-25T08:45:52.002Z,25.71
2022-08-25T08:48:28.525Z,25.72
2022-08-25T08:51:23.170Z,26.12
2022-08-25T08:53:57.248Z,26.27
2022-08-25T08:56:35.018Z,26.47
2022-08-25T08:59:09.213Z,26.58
2022-08-25T09:01:46.903Z,26.43
2022-08-25T09:04:29.564Z,26.48
2022-08-25T09:06:59.902Z,26.44
2022-08-25T09:09:35.734Z,26.36
2022-08-25T09:12:27.856Z,26.50
2022-08-25T09:15:12.969Z,26.54
2022-08-25T09:17:43.409Z,26.45
2022-08-25T09:20:43.034Z,26.67
2022-08-25T09:24:00.915Z,26.82
2022-08-25T09:26:43.305Z,27.02
2022-08-25T09:29:16.626Z,27.23
2022-08-25T09:31:44.867Z,27.20
2022-08-25T09:34:28.451Z,26.87
2022-08-25T09:36:55.239Z,26.49
2022-08-25T09:39:23.903Z,26.64
2022-08-25T09:41:56.707Z,26.87
2022-08-25T09:44:32.281Z,27.02
2022-08-25T09:47:05.464Z,27.05
2022-08-25T09:49:44.036Z,27.00
2022-08-25T09:52:34.529Z,27.13
2022-08-25T09:55:16.170Z,27.26
2022-08-25T09:57:42.989Z,27.42
2022-08-25T10:00:21.668Z,27.59
2022-08-25T10:03:06.450Z,27.94
2022-08-25T10:05:40.034Z,28.32
2022-08-25T10:08:24.650Z,28.19
2022-08-25T10:10:58.302Z,28.30
2022-08-25T10:13:49.360Z,28.38
2022-08-25T10:16:30.848Z,28.41
2022-08-25T10:19:08.823Z,28.57
2022-08-25T10:21:39.303Z,28.24
2022-08-25T10:24:08.616Z,27.63
2022-08-25T10:26:48.572Z,27.39
2022-08-25T10:29:21.452Z,27.36
2022-08-25T10:31:56.206Z,27.59
2022-08-25T10:34:44.439Z,27.93
2022-08-25T10:37:59.234Z,28.47
2022-08-25T10:40:33.624Z,29.09
2022-08-25T10:43:19.102Z,29.51
2022-08-25T10:45:52.627Z,29.72
2022-08-25T10:48:35.145Z,29.90
2022-08-25T10:51:36.277Z,29.81
2022-08-25T10:54:04.251Z,29.73
2022-08-25T10:56:40.237Z,30.10
2022-08-25T10:59:21.166Z,30.33
2022-08-25T11:02:03.389Z,30.51
2022-08-25T11:04:43.610Z,30.26
2022-08-25T11:07:19.676Z,30.09
2022-08-25T11:09:51.125Z,30.09
2022-08-25T11:12:23.986Z,30.13
2022-08-25T11:14:58.450Z,30.31
2022-08-25T11:17:28.951Z,30.60
2022-08-25T11:20:01.561Z,30.78
2022-08-25T11:22:59.167Z,30.72
2022-08-25T11:25:35.120Z,30.68
2022-08-25T11:28:30.807Z,30.64
2022-08-25T11:31:00.767Z,30.83
2022-08-25T11:33:30.571Z,30.81
2022-08-25T11:36:05.607Z,31.11
2022-08-25T11:39:05.287Z,31.61
2022-08-25T11:41:49.941Z,31.81
2022-08-25T11:44:20.136Z,31.09
2022-08-25T11:47:21.165Z,31.03
2022-08-25T11:49:53.324Z,31.21
2022-08-25T11:52:38.467Z,31.33
2022-08-25T11:55:23.364Z,31.50
2022-08-25T11:57:53.611Z,32.03
2022-08-25T12:00:20.575Z,32.51
2022-08-25T12:02:50.850Z,32.70
2022-08-25T12:05:17.637Z,32.06
2022-08-25T12:07:47.627Z,31.89
2022-08-25T12:10:19.466Z,31.85
2022-08-25T12:12:46.554Z,31.70
2022-08-25T12:15:24.596Z,31.76
2022-08-25T12:18:12.929Z,32.33
2022-08-25T12:20:55.978Z,32.99
2022-08-25T12:23:34.054Z,33.26
2022-08-25T12:26:18.842Z,33.58
2022-08-25T12:28:51.610Z,33.77
2022-08-25T12:31:30.123Z,33.07
2022-08-25T12:34:08.423Z,32.87
2022-08-25T12:36:39.643Z,32.48
2022-08-25T12:39:24.567Z,32.25
2022-08-25T12:42:32.615Z,31.81
2022-08-25T12:45:34.177Z,31.10
2022-08-25T12:48:28.838Z,31.49
2022-08-25T12:51:07.558Z,31.67
2022-08-25T12:53:39.160Z,31.60
2022-08-25T12:56:23.439Z,31.95
2022-08-25T12:59:02.974Z,31.87
2022-08-25T13:01:56.763Z,31.62
2022-08-25T13:05:17.630Z,30.82
2022-08-25T13:07:56.096Z,30.62
2022-08-25T13:10:48.424Z,31.03
2022-08-25T13:13:33.817Z,31.44
2022-08-25T13:16:10.107Z,31.04
2022-08-25T13:18:39.165Z,30.65
2022-08-25T13:21:17.585Z,30.49
2022-08-25T13:23:48.548Z,30.21
2022-08-25T13:26:23.473Z,30.01
2022-08-25T13:28:59.805Z,30.24
2022-08-25T13:31:29.659Z,30.60
2022-08-25T13:34:02.292Z,30.52
2022-08-25T13:36:55.410Z,30.28
2022-08-25T13:39:52.648Z,30.11
2022-08-25T13:42:16.491Z,30.19
2022-08-25T13:44:52.396Z,30.06
2022-08-25T13:47:44.988Z,29.86
2022-08-25T13:50:28.822Z,30.23
2022-08-25T13:53:11.549Z,30.93
2022-08-25T13:56:02.251Z,31.51
2022-08-25T13:58:44.343Z,31.54
2022-08-25T14:01:22.696Z,31.13
2022-08-25T14:04:33.114Z,30.37
2022-08-25T14:07:13.422Z,29.99
2022-08-25T14:09:48.489Z,30.07
2022-08-25T14:12:46.397Z,29.87
2022-08-25T14:15:22.147Z,29.64
2022-08-25T14:18:01.957Z,29.40
2022-08-25T14:20:31.876Z,28.92
2022-08-25T14:23:16.265Z,28.60
2022-08-25T14:25:47.346Z,28.58
2022-08-25T14:28:18.794Z,28.78
2022-08-25T14:30:59.852Z,28.64
2022-08-25T14:33:33.135Z,28.21
2022-08-25T14:36:02.870Z,27.90
2022-08-25T14:38:29.678Z,27.48
2022-08-25T14:40:59.278Z,27.27
2022-08-25T14:43:31.491Z,27.20
2022-08-25T14:46:02.509Z,27.10
2022-08-25T14:48:35.633Z,27.15
2022-08-25T14:51:04.294Z,27.84
2022-08-25T14:53:32.113Z,28.64
2022-08-25T14:55:59.499Z,29.29
2022-08-25T14:58:27.063Z,29.60
2022-08-25T15:00:54.284Z,29.34
2022-08-25T15:03:44.472Z,29.72
2022-08-25T15:06:16.658Z,29.90
2022-08-25T15:09:02.879Z,30.09
2022-08-25T15:11:31.770Z,30.23
2022-08-25T15:14:02.363Z,30.59
2022-08-25T15:16:35.485Z,31.13
2022-08-25T15:19:06.660Z,31.66
2022-08-25T15:21:35.629Z,31.53
2022-08-25T15:24:03.793Z,31.49
2022-08-25T15:26:31.329Z,32.03
2022-08-25T15:28:59.468Z,32.85
2022-08-25T15:31:26.848Z,33.56
2022-08-25T15:33:53.789Z,33.48
2022-08-25T15:36:24.842Z,33.01
2022-08-25T15:38:52.640Z,32.70
2022-08-25T15:41:21.017Z,32.72
2022-08-25T15:43:51.588Z,32.78
2022-08-25T15:46:21.927Z,32.90
2022-08-25T15:48:48.779Z,33.05
2022-08-25T15:51:17.745Z,32.96
2022-08-25T15:53:45.675Z,32.90
2022-08-25T15:56:26.818Z,32.64
2022-08-25T15:58:55.587Z,32.23
2022-08-25T16:01:26.744Z,31.75
2022-08-25T16:03:54.104Z,31.63
2022-08-25T16:06:21.573Z,31.43
2022-08-25T16:08:48.832Z,31.71
2022-08-25T16:11:18.829Z,31.70
2022-08-25T16:13:47.639Z,31.59
2022-08-25T16:16:16.710Z,31.86
2022-08-25T16:18:44.622Z,31.88
2022-08-25T16:21:14.147Z,31.46
2022-08-25T16:23:41.673Z,31.53
2022-08-25T16:26:11.078Z,31.42
2022-08-25T16:28:43.899Z,31.34
2022-08-25T16:31:13.181Z,31.20
2022-08-25T16:36:15.909Z,30.85
2022-08-25T16:38:48.887Z,30.39
2022-08-25T16:41:20.703Z,30.15
2022-08-25T16:43:47.662Z,29.49
2022-08-25T16:46:17.423Z,29.52
2022-08-25T16:48:44.934Z,29.27
2022-08-25T16:51:14.736Z,29.09
2022-08-25T16:54:00.577Z,28.98
2022-08-25T16:56:28.423Z,28.69
2022-08-25T16:58:58.448Z,28.47
2022-08-25T17:01:26.660Z,28.26
2022-08-25T17:03:55.823Z,27.92
2022-08-25T17:06:25.212Z,27.47
2022-08-25T17:08:52.689Z,27.20
2022-08-25T17:11:27.215Z,26.81
2022-08-25T17:13:57.236Z,26.51
2022-08-25T17:16:27.975Z,26.39
2022-08-25T17:18:55.857Z,26.20
2022-08-25T17:21:24.820Z,25.88
2022-08-25T17:23:53.267Z,25.67
2022-08-25T17:26:20.328Z,25.58
2022-08-25T17:28:55.190Z,25.46
2022-08-25T17:31:23.081Z,25.30
2022-08-25T17:33:52.370Z,25.17
2022-08-25T17:36:19.859Z,25.00
2022-08-25T17:38:56.901Z,24.84
2022-08-25T17:41:24.195Z,24.66
2022-08-25T17:43:51.047Z,24.53
2022-08-25T17:46:18.232Z,24.40
2022-08-25T17:48:45.253Z,24.34
2022-08-25T17:51:12.386Z,24.26
2022-08-25T17:53:39.275Z,24.14
2022-08-25T17:56:09.832Z,24.10
2022-08-25T17:58:37.489Z,24.00
2022-08-25T18:01:05.455Z,23.85
2022-08-25T18:03:33.270Z,23.88
2022-08-25T18:06:00.526Z,23.77
2022-08-25T18:08:34.883Z,23.71
2022-08-25T18:11:04.715Z,23.63
2022-08-25T18:13:31.743Z,23.55
2022-08-25T18:15:59.131Z,23.44
2022-08-25T18:18:27.309Z,23.34
2022-08-25T18:20:54.116Z,23.26
2022-08-25T18:23:21.124Z,23.11
2022-08-25T18:25:49.112Z,23.07
2022-08-25T18:28:16.351Z,23.02
2022-08-25T18:30:43.868Z,22.84
2022-08-25T18:33:12.093Z,22.74
2022-08-25T18:35:39.048Z,22.71
2022-08-25T18:38:25.685Z,22.67
2022-08-25T18:41:00.625Z,22.60
2022-08-25T18:43:31.906Z,22.48
2022-08-25T18:46:04.161Z,22.35
2022-08-25T18:48:32.306Z,22.40
2022-08-25T18:51:01.033Z,22.20
2022-08-25T18:53:30.713Z,22.10
2022-08-25T18:56:04.521Z,21.94
2022-08-25T18:58:31.744Z,21.86
2022-08-25T19:01:00.871Z,21.82
2022-08-25T19:03:29.707Z,21.58
2022-08-25T19:05:57.867Z,21.44
2022-08-25T19:08:24.979Z,21.26
2022-08-25T19:10:54.301Z,21.27
2022-08-25T19:13:22.679Z,21.14
2022-08-25T19:15:51.321Z,21.17
2022-08-25T19:18:26.231Z,21.13
2022-08-25T19:20:56.479Z,21.04
2022-08-25T19:23:23.478Z,21.05
2022-08-25T19:25:50.321Z,21.02
2022-08-25T19:28:17.234Z,21.01
2022-08-25T19:30:49.887Z,21.02
2022-08-25T19:33:42.353Z,20.91
2022-08-25T19:36:08.639Z,20.97
2022-08-25T19:38:37.572Z,20.90
2022-08-25T19:41:09.056Z,20.84
2022-08-25T19:43:56.781Z,20.70
2022-08-25T19:46:33.280Z,20.66
2022-08-25T19:49:08.760Z,20.59
2022-08-25T19:51:56.864Z,20.59
2022-08-25T19:54:35.553Z,20.57
2022-08-25T19:57:06.291Z,20.53
2022-08-25T19:59:42.633Z,20.53
2022-08-25T20:02:17.014Z,20.43
2022-08-25T20:04:49.649Z,20.44
2022-08-25T20:07:23.847Z,20.43
2022-08-25T20:09:52.371Z,20.32
2022-08-25T20:12:20.504Z,20.16
2022-08-25T20:14:49.121Z,20.17
2022-08-25T20:17:23.732Z,20.08
2022-08-25T20:19:57.187Z,20.00
2022-08-25T20:22:27.144Z,19.89
2022-08-25T20:25:04.010Z,19.81
2022-08-25T20:27:47.870Z,19.80
2022-08-25T20:30:16.791Z,19.75
2022-08-25T20:32:45.347Z,19.65
2022-08-25T20:35:14.421Z,19.53
2022-08-25T20:37:44.465Z,19.49
2022-08-25T20:40:14.521Z,19.46
2022-08-25T20:42:43.477Z,19.42
2022-08-25T20:45:12.837Z,19.46
2022-08-25T20:47:39.669Z,19.41
2022-08-25T20:50:09.293Z,19.43
2022-08-25T20:52:37.394Z,19.39
2022-08-25T20:55:10.062Z,19.28
2022-08-25T20:57:37.075Z,19.19
2022-08-25T21:00:04.910Z,19.02
2022-08-25T21:02:31.812Z,19.00
2022-08-25T21:04:58.667Z,19.00
2022-08-25T21:07:26.100Z,19.01
2022-08-25T21:09:55.064Z,18.96
2022-08-25T21:12:22.036Z,18.98
2022-08-25T21:14:49.068Z,18.98
2022-08-25T21:17:19.231Z,18.94
2022-08-25T21:22:18.562Z,18.90
2022-08-25T21:24:46.004Z,18.85
2022-08-25T21:27:13.125Z,18.83
2022-08-25T21:29:44.632Z,18.79
2022-08-25T21:32:22.225Z,18.75
2022-08-25T21:34:53.976Z,18.68
2022-08-25T21:37:21.490Z,18.63
2022-08-25T21:39:48.412Z,18.48
2022-08-25T21:42:15.244Z,18.52
2022-08-25T21:44:42.321Z,18.56
2022-08-25T21:47:09.375Z,18.48
2022-08-25T21:49:37.288Z,18.49
2022-08-25T21:52:05.510Z,18.45
2022-08-25T21:54:32.664Z,18.39
2022-08-25T21:57:02.632Z,18.44
2022-08-25T21:59:36.112Z,18.38
2022-08-25T22:02:07.486Z,18.43
2022-08-25T22:04:34.642Z,18.44
2022-08-25T22:07:02.836Z,18.43
2022-08-25T22:09:30.628Z,18.42
2022-08-25T22:11:58.681Z,18.43
2022-08-25T22:14:27.244Z,18.41
2022-08-25T22:16:55.294Z,18.38
2022-08-25T22:19:23.041Z,18.37
2022-08-25T22:21:51.824Z,18.35
2022-08-25T22:24:19.495Z,18.22
2022-08-25T22:26:48.509Z,18.20
2022-08-25T22:29:25.009Z,18.19
2022-08-25T22:31:59.593Z,18.19
2022-08-25T22:34:32.854Z,18.13
2022-08-25T22:37:04.228Z,18.09
2022-08-25T22:39:34.255Z,18.03
2022-08-25T22:42:02.958Z,18.07
2022-08-25T22:44:30.042Z,18.07
2022-08-25T22:46:56.879Z,18.09
2022-08-25T22:49:23.724Z,18.14
2022-08-25T22:51:50.883Z,18.18
2022-08-25T22:54:18.052Z,18.19
2022-08-25T22:56:44.878Z,18.19
2022-08-25T22:59:13.220Z,18.22
2022-08-25T23:01:42.864Z,18.29
2022-08-25T23:04:10.715Z,18.36
2022-08-25T23:06:38.161Z,18.40
2022-08-25T23:09:08.315Z,18.45
2022-08-25T23:11:38.597Z,18.50
2022-08-25T23:14:08.367Z,18.54
2022-08-25T23:16:35.462Z,18.54
2022-08-25T23:19:02.400Z,18.52
2022-08-25T23:21:47.853Z,18.47
2022-08-25T23:24:29.224Z,18.44
2022-08-25T23:27:01.629Z,18.37
2022-08-25T23:29:30.144Z,18.35
2022-08-25T23:31:58.228Z,18.23
2022-08-25T23:34:25.770Z,18.19
2022-08-25T23:36:52.853Z,18.11
2022-08-25T23:39:21.619Z,18.18
2022-08-25T23:41:49.442Z,18.18
2022-08-25T23:44:17.513Z,18.17
2022-08-25T23:46:47.355Z,18.12
2022-08-25T23:49:18.547Z,18.14
2022-08-25T23:51:47.541Z,18.17
2022-08-25T23:54:15.903Z,17.92
2022-08-25T23:56:45.020Z,18.05
2022-08-25T23:59:24.903Z,18.10
